sensor_id;sensor_type;location;lat;lon;timestamp;P1;durP1;ratioP1;P2;durP2;ratioP2
74241;SDS011;62599;49.146;10.426;2023-04-16T00:01:54;2.87;;;2.30;;
74241;SDS011;62599;49.146;10.426;2023-04-16T00:04:20;3.30;;;2.40;;
74241;SDS011;62599;49.146;10.426;2023-04-16T00:06:45;3.93;;;3.17;;
74241;SDS011;62599;49.146;10.426;2023-04-16T00:09:11;3.20;;;2.42;;
74241;SDS011;62599;49.146;10.426;2023-04-16T00:11:36;2.73;;;1.67;;
74241;SDS011;62599;49.146;10.426;2023-04-16T00:14:01;5.07;;;2.53;;
74241;SDS011;62599;49.146;10.426;2023-04-16T00:16:27;3.53;;;2.13;;
74241;SDS011;62599;49.146;10.426;2023-04-16T00:18:52;4.20;;;2.92;;
74241;SDS011;62599;49.146;10.426;2023-04-16T00:21:18;3.93;;;2.83;;
74241;SDS011;62599;49.146;10.426;2023-04-16T00:23:43;2.87;;;2.47;;
74241;SDS011;62599;49.146;10.426;2023-04-16T00:26:08;5.10;;;2.97;;
74241;SDS011;62599;49.146;10.426;2023-04-16T00:28:34;4.63;;;2.53;;
74241;SDS011;62599;49.146;10.426;2023-04-16T00:30:59;3.97;;;2.90;;
74241;SDS011;62599;49.146;10.426;2023-04-16T00:33:27;5.00;;;3.08;;
74241;SDS011;62599;49.146;10.426;2023-04-16T00:35:54;4.55;;;2.67;;
74241;SDS011;62599;49.146;10.426;2023-04-16T00:38:19;3.85;;;1.98;;
74241;SDS011;62599;49.146;10.426;2023-04-16T00:40:45;7.28;;;2.55;;
74241;SDS011;62599;49.146;10.426;2023-04-16T00:43:10;5.40;;;2.72;;
74241;SDS011;62599;49.146;10.426;2023-04-16T00:45:36;3.33;;;2.78;;
74241;SDS011;62599;49.146;10.426;2023-04-16T00:48:01;7.55;;;3.85;;
74241;SDS011;62599;49.146;10.426;2023-04-16T00:50:27;3.88;;;2.97;;
74241;SDS011;62599;49.146;10.426;2023-04-16T00:52:53;3.08;;;2.30;;
74241;SDS011;62599;49.146;10.426;2023-04-16T00:55:20;2.55;;;1.95;;
74241;SDS011;62599;49.146;10.426;2023-04-16T00:57:46;4.57;;;3.13;;
74241;SDS011;62599;49.146;10.426;2023-04-16T01:00:11;3.70;;;1.30;;
74241;SDS011;62599;49.146;10.426;2023-04-16T01:02:37;3.75;;;2.90;;
74241;SDS011;62599;49.146;10.426;2023-04-16T01:05:03;4.40;;;2.63;;
74241;SDS011;62599;49.146;10.426;2023-04-16T01:07:29;2.80;;;2.15;;
74241;SDS011;62599;49.146;10.426;2023-04-16T01:09:55;4.75;;;2.30;;
74241;SDS011;62599;49.146;10.426;2023-04-16T01:12:20;3.40;;;2.63;;
74241;SDS011;62599;49.146;10.426;2023-04-16T01:14:46;4.95;;;2.83;;
74241;SDS011;62599;49.146;10.426;2023-04-16T01:17:11;2.90;;;2.28;;
74241;SDS011;62599;49.146;10.426;2023-04-16T01:19:37;3.77;;;2.47;;
74241;SDS011;62599;49.146;10.426;2023-04-16T01:22:03;1.83;;;1.67;;
74241;SDS011;62599;49.146;10.426;2023-04-16T01:24:29;3.08;;;2.03;;
74241;SDS011;62599;49.146;10.426;2023-04-16T01:26:56;3.15;;;2.15;;
74241;SDS011;62599;49.146;10.426;2023-04-16T01:29:24;2.72;;;1.20;;
74241;SDS011;62599;49.146;10.426;2023-04-16T01:31:50;1.45;;;1.35;;
74241;SDS011;62599;49.146;10.426;2023-04-16T01:34:15;2.08;;;1.83;;
74241;SDS011;62599;49.146;10.426;2023-04-16T01:36:40;1.38;;;1.25;;
74241;SDS011;62599;49.146;10.426;2023-04-16T01:39:06;2.37;;;1.63;;
74241;SDS011;62599;49.146;10.426;2023-04-16T01:41:33;1.42;;;1.20;;
74241;SDS011;62599;49.146;10.426;2023-04-16T01:43:58;1.93;;;1.63;;
74241;SDS011;62599;49.146;10.426;2023-04-16T01:46:26;4.28;;;2.13;;
74241;SDS011;62599;49.146;10.426;2023-04-16T01:48:55;3.10;;;1.88;;
74241;SDS011;62599;49.146;10.426;2023-04-16T01:51:21;4.45;;;1.73;;
74241;SDS011;62599;49.146;10.426;2023-04-16T01:53:51;2.45;;;1.83;;
74241;SDS011;62599;49.146;10.426;2023-04-16T01:56:16;1.75;;;1.63;;
74241;SDS011;62599;49.146;10.426;2023-04-16T01:58:41;3.15;;;1.65;;
74241;SDS011;62599;49.146;10.426;2023-04-16T02:01:07;3.37;;;1.00;;
74241;SDS011;62599;49.146;10.426;2023-04-16T02:03:33;1.63;;;1.52;;
74241;SDS011;62599;49.146;10.426;2023-04-16T02:05:59;3.28;;;1.90;;
74241;SDS011;62599;49.146;10.426;2023-04-16T02:08:25;2.20;;;1.38;;
74241;SDS011;62599;49.146;10.426;2023-04-16T02:10:51;2.53;;;1.35;;
74241;SDS011;62599;49.146;10.426;2023-04-16T02:13:16;2.50;;;1.65;;
74241;SDS011;62599;49.146;10.426;2023-04-16T02:15:45;1.88;;;1.65;;
74241;SDS011;62599;49.146;10.426;2023-04-16T02:18:12;3.83;;;1.33;;
74241;SDS011;62599;49.146;10.426;2023-04-16T02:20:44;1.45;;;0.82;;
74241;SDS011;62599;49.146;10.426;2023-04-16T02:23:11;1.30;;;0.93;;
74241;SDS011;62599;49.146;10.426;2023-04-16T02:25:42;1.85;;;1.40;;
74241;SDS011;62599;49.146;10.426;2023-04-16T02:28:10;2.20;;;1.13;;
74241;SDS011;62599;49.146;10.426;2023-04-16T02:30:37;1.10;;;1.00;;
74241;SDS011;62599;49.146;10.426;2023-04-16T02:33:03;1.67;;;1.05;;
74241;SDS011;62599;49.146;10.426;2023-04-16T02:35:33;2.15;;;1.50;;
74241;SDS011;62599;49.146;10.426;2023-04-16T02:37:59;1.83;;;1.23;;
74241;SDS011;62599;49.146;10.426;2023-04-16T02:40:25;2.15;;;1.48;;
74241;SDS011;62599;49.146;10.426;2023-04-16T02:42:51;2.28;;;1.40;;
74241;SDS011;62599;49.146;10.426;2023-04-16T02:45:17;2.35;;;1.17;;
74241;SDS011;62599;49.146;10.426;2023-04-16T02:47:43;1.25;;;1.10;;
74241;SDS011;62599;49.146;10.426;2023-04-16T02:50:08;2.13;;;1.70;;
74241;SDS011;62599;49.146;10.426;2023-04-16T02:52:34;2.17;;;1.25;;
74241;SDS011;62599;49.146;10.426;2023-04-16T02:54:59;1.80;;;1.53;;
74241;SDS011;62599;49.146;10.426;2023-04-16T02:57:25;2.92;;;1.90;;
74241;SDS011;62599;49.146;10.426;2023-04-16T02:59:50;2.43;;;2.23;;
74241;SDS011;62599;49.146;10.426;2023-04-16T03:02:15;0.60;;;0.60;;
74241;SDS011;62599;49.146;10.426;2023-04-16T03:04:41;1.38;;;0.88;;
74241;SDS011;62599;49.146;10.426;2023-04-16T03:07:07;1.63;;;1.52;;
74241;SDS011;62599;49.146;10.426;2023-04-16T03:09:33;2.15;;;1.67;;
74241;SDS011;62599;49.146;10.426;2023-04-16T03:11:59;1.60;;;1.50;;
74241;SDS011;62599;49.146;10.426;2023-04-16T03:14:26;1.33;;;0.93;;
74241;SDS011;62599;49.146;10.426;2023-04-16T03:16:51;1.38;;;0.93;;
74241;SDS011;62599;49.146;10.426;2023-04-16T03:19:16;0.82;;;0.73;;
74241;SDS011;62599;49.146;10.426;2023-04-16T03:21:42;1.33;;;1.23;;
74241;SDS011;62599;49.146;10.426;2023-04-16T03:24:07;0.90;;;0.90;;
74241;SDS011;62599;49.146;10.426;2023-04-16T03:26:33;1.40;;;1.30;;
74241;SDS011;62599;49.146;10.426;2023-04-16T03:28:58;1.97;;;0.73;;
74241;SDS011;62599;49.146;10.426;2023-04-16T03:31:24;2.35;;;0.93;;
74241;SDS011;62599;49.146;10.426;2023-04-16T03:33:50;2.08;;;1.20;;
74241;SDS011;62599;49.146;10.426;2023-04-16T03:36:15;0.85;;;0.85;;
74241;SDS011;62599;49.146;10.426;2023-04-16T03:38:41;1.57;;;1.37;;
74241;SDS011;62599;49.146;10.426;2023-04-16T03:41:06;1.07;;;0.97;;
74241;SDS011;62599;49.146;10.426;2023-04-16T03:43:31;1.55;;;1.05;;
74241;SDS011;62599;49.146;10.426;2023-04-16T03:45:57;1.08;;;0.95;;
74241;SDS011;62599;49.146;10.426;2023-04-16T03:48:22;1.03;;;0.80;;
74241;SDS011;62599;49.146;10.426;2023-04-16T03:50:48;1.67;;;1.17;;
74241;SDS011;62599;49.146;10.426;2023-04-16T03:53:13;0.87;;;0.70;;
74241;SDS011;62599;49.146;10.426;2023-04-16T03:55:39;0.80;;;0.80;;
74241;SDS011;62599;49.146;10.426;2023-04-16T03:58:05;1.85;;;0.80;;
74241;SDS011;62599;49.146;10.426;2023-04-16T04:00:30;1.17;;;0.95;;
74241;SDS011;62599;49.146;10.426;2023-04-16T04:02:56;2.10;;;0.85;;
74241;SDS011;62599;49.146;10.426;2023-04-16T04:05:21;3.08;;;1.35;;
74241;SDS011;62599;49.146;10.426;2023-04-16T04:07:46;1.55;;;1.42;;
74241;SDS011;62599;49.146;10.426;2023-04-16T04:10:12;0.75;;;0.60;;
74241;SDS011;62599;49.146;10.426;2023-04-16T04:12:37;1.27;;;1.15;;
74241;SDS011;62599;49.146;10.426;2023-04-16T04:15:06;3.90;;;1.10;;
74241;SDS011;62599;49.146;10.426;2023-04-16T04:17:32;1.73;;;0.90;;
74241;SDS011;62599;49.146;10.426;2023-04-16T04:19:57;1.53;;;0.70;;
74241;SDS011;62599;49.146;10.426;2023-04-16T04:22:23;0.63;;;0.63;;
74241;SDS011;62599;49.146;10.426;2023-04-16T04:24:48;1.52;;;1.00;;
74241;SDS011;62599;49.146;10.426;2023-04-16T04:27:13;1.03;;;0.80;;
74241;SDS011;62599;49.146;10.426;2023-04-16T04:29:39;1.33;;;1.13;;
74241;SDS011;62599;49.146;10.426;2023-04-16T04:32:04;2.07;;;1.97;;
74241;SDS011;62599;49.146;10.426;2023-04-16T04:34:30;2.85;;;1.23;;
74241;SDS011;62599;49.146;10.426;2023-04-16T04:36:55;2.93;;;1.37;;
74241;SDS011;62599;49.146;10.426;2023-04-16T04:39:20;2.07;;;1.47;;
74241;SDS011;62599;49.146;10.426;2023-04-16T04:41:46;2.85;;;1.63;;
74241;SDS011;62599;49.146;10.426;2023-04-16T04:44:12;3.05;;;1.75;;
74241;SDS011;62599;49.146;10.426;2023-04-16T04:46:38;4.70;;;2.40;;
74241;SDS011;62599;49.146;10.426;2023-04-16T04:49:04;6.10;;;2.92;;
74241;SDS011;62599;49.146;10.426;2023-04-16T04:51:29;3.97;;;2.70;;
74241;SDS011;62599;49.146;10.426;2023-04-16T04:53:55;5.88;;;1.80;;
74241;SDS011;62599;49.146;10.426;2023-04-16T04:56:20;2.83;;;2.33;;
74241;SDS011;62599;49.146;10.426;2023-04-16T04:58:46;6.65;;;2.78;;
74241;SDS011;62599;49.146;10.426;2023-04-16T05:01:11;6.43;;;3.22;;
74241;SDS011;62599;49.146;10.426;2023-04-16T05:03:36;7.60;;;2.43;;
74241;SDS011;62599;49.146;10.426;2023-04-16T05:06:02;6.20;;;2.80;;
74241;SDS011;62599;49.146;10.426;2023-04-16T05:08:27;3.58;;;1.05;;
74241;SDS011;62599;49.146;10.426;2023-04-16T05:10:53;3.67;;;2.30;;
74241;SDS011;62599;49.146;10.426;2023-04-16T05:13:18;7.70;;;3.50;;
74241;SDS011;62599;49.146;10.426;2023-04-16T05:15:43;5.37;;;2.40;;
74241;SDS011;62599;49.146;10.426;2023-04-16T05:18:09;5.82;;;2.90;;
74241;SDS011;62599;49.146;10.426;2023-04-16T05:20:35;8.90;;;3.67;;
74241;SDS011;62599;49.146;10.426;2023-04-16T05:23:01;17.63;;;6.47;;
74241;SDS011;62599;49.146;10.426;2023-04-16T05:25:27;4.97;;;3.10;;
74241;SDS011;62599;49.146;10.426;2023-04-16T05:27:52;2.47;;;1.60;;
74241;SDS011;62599;49.146;10.426;2023-04-16T05:30:18;2.70;;;1.53;;
74241;SDS011;62599;49.146;10.426;2023-04-16T05:32:43;3.75;;;2.45;;
74241;SDS011;62599;49.146;10.426;2023-04-16T05:35:09;6.03;;;3.63;;
74241;SDS011;62599;49.146;10.426;2023-04-16T05:37:35;12.75;;;4.82;;
74241;SDS011;62599;49.146;10.426;2023-04-16T05:40:00;4.95;;;2.80;;
74241;SDS011;62599;49.146;10.426;2023-04-16T05:42:26;8.73;;;4.10;;
74241;SDS011;62599;49.146;10.426;2023-04-16T05:44:51;6.32;;;3.90;;
74241;SDS011;62599;49.146;10.426;2023-04-16T05:47:17;8.45;;;5.20;;
74241;SDS011;62599;49.146;10.426;2023-04-16T05:49:42;9.75;;;4.20;;
74241;SDS011;62599;49.146;10.426;2023-04-16T05:52:07;12.02;;;5.10;;
74241;SDS011;62599;49.146;10.426;2023-04-16T05:54:33;10.50;;;4.35;;
74241;SDS011;62599;49.146;10.426;2023-04-16T05:56:59;20.45;;;9.77;;
74241;SDS011;62599;49.146;10.426;2023-04-16T05:59:25;3.88;;;2.90;;
74241;SDS011;62599;49.146;10.426;2023-04-16T06:01:54;22.98;;;11.90;;
74241;SDS011;62599;49.146;10.426;2023-04-16T06:04:19;10.10;;;4.68;;
74241;SDS011;62599;49.146;10.426;2023-04-16T06:06:45;14.23;;;7.97;;
74241;SDS011;62599;49.146;10.426;2023-04-16T06:09:10;12.18;;;4.63;;
74241;SDS011;62599;49.146;10.426;2023-04-16T06:11:36;9.20;;;4.13;;
74241;SDS011;62599;49.146;10.426;2023-04-16T06:14:01;13.77;;;5.30;;
74241;SDS011;62599;49.146;10.426;2023-04-16T06:16:26;9.20;;;5.00;;
74241;SDS011;62599;49.146;10.426;2023-04-16T06:18:52;10.30;;;5.37;;
74241;SDS011;62599;49.146;10.426;2023-04-16T06:21:17;15.53;;;6.63;;
74241;SDS011;62599;49.146;10.426;2023-04-16T06:23:43;13.00;;;4.95;;
74241;SDS011;62599;49.146;10.426;2023-04-16T06:26:08;8.57;;;4.30;;
74241;SDS011;62599;49.146;10.426;2023-04-16T06:28:34;19.83;;;6.63;;
74241;SDS011;62599;49.146;10.426;2023-04-16T06:31:00;9.17;;;3.67;;
74241;SDS011;62599;49.146;10.426;2023-04-16T06:33:25;10.45;;;4.10;;
74241;SDS011;62599;49.146;10.426;2023-04-16T06:35:51;8.23;;;3.90;;
74241;SDS011;62599;49.146;10.426;2023-04-16T06:38:16;6.97;;;4.77;;
74241;SDS011;62599;49.146;10.426;2023-04-16T06:40:42;25.88;;;6.95;;
74241;SDS011;62599;49.146;10.426;2023-04-16T06:43:07;12.80;;;5.33;;
74241;SDS011;62599;49.146;10.426;2023-04-16T06:45:33;10.77;;;4.90;;
74241;SDS011;62599;49.146;10.426;2023-04-16T06:47:58;8.68;;;4.22;;
74241;SDS011;62599;49.146;10.426;2023-04-16T06:50:24;3.05;;;2.75;;
74241;SDS011;62599;49.146;10.426;2023-04-16T06:52:51;16.38;;;5.28;;
74241;SDS011;62599;49.146;10.426;2023-04-16T06:55:16;11.15;;;5.82;;
74241;SDS011;62599;49.146;10.426;2023-04-16T06:57:42;8.07;;;4.28;;
74241;SDS011;62599;49.146;10.426;2023-04-16T07:00:07;31.73;;;9.48;;
74241;SDS011;62599;49.146;10.426;2023-04-16T07:02:33;15.73;;;5.22;;
74241;SDS011;62599;49.146;10.426;2023-04-16T07:04:59;16.63;;;6.93;;
74241;SDS011;62599;49.146;10.426;2023-04-16T07:07:24;12.25;;;4.85;;
74241;SDS011;62599;49.146;10.426;2023-04-16T07:09:49;14.23;;;5.53;;
74241;SDS011;62599;49.146;10.426;2023-04-16T07:12:16;6.95;;;3.58;;
74241;SDS011;62599;49.146;10.426;2023-04-16T07:14:41;10.48;;;4.72;;
74241;SDS011;62599;49.146;10.426;2023-04-16T07:17:06;6.68;;;3.83;;
74241;SDS011;62599;49.146;10.426;2023-04-16T07:19:32;18.50;;;7.77;;
74241;SDS011;62599;49.146;10.426;2023-04-16T07:21:58;16.70;;;6.60;;
74241;SDS011;62599;49.146;10.426;2023-04-16T07:24:23;23.77;;;8.48;;
74241;SDS011;62599;49.146;10.426;2023-04-16T07:26:49;14.48;;;5.88;;
74241;SDS011;62599;49.146;10.426;2023-04-16T07:29:14;9.95;;;4.78;;
74241;SDS011;62599;49.146;10.426;2023-04-16T07:31:42;19.10;;;9.60;;
74241;SDS011;62599;49.146;10.426;2023-04-16T07:34:09;21.85;;;9.35;;
74241;SDS011;62599;49.146;10.426;2023-04-16T07:36:35;85.45;;;34.20;;
74241;SDS011;62599;49.146;10.426;2023-04-16T07:39:00;51.42;;;19.60;;
74241;SDS011;62599;49.146;10.426;2023-04-16T07:41:26;50.35;;;18.80;;
74241;SDS011;62599;49.146;10.426;2023-04-16T07:43:53;83.25;;;27.48;;
74241;SDS011;62599;49.146;10.426;2023-04-16T07:46:18;14.27;;;7.90;;
74241;SDS011;62599;49.146;10.426;2023-04-16T07:48:44;8.43;;;5.05;;
74241;SDS011;62599;49.146;10.426;2023-04-16T07:51:10;9.05;;;4.63;;
74241;SDS011;62599;49.146;10.426;2023-04-16T07:53:39;5.22;;;3.63;;
74241;SDS011;62599;49.146;10.426;2023-04-16T07:56:04;10.57;;;4.50;;
74241;SDS011;62599;49.146;10.426;2023-04-16T07:58:30;18.13;;;6.75;;
74241;SDS011;62599;49.146;10.426;2023-04-16T08:00:55;15.70;;;7.60;;
74241;SDS011;62599;49.146;10.426;2023-04-16T08:03:21;14.73;;;5.63;;
74241;SDS011;62599;49.146;10.426;2023-04-16T08:05:46;22.00;;;11.90;;
74241;SDS011;62599;49.146;10.426;2023-04-16T08:08:12;11.68;;;7.10;;
74241;SDS011;62599;49.146;10.426;2023-04-16T08:10:37;17.87;;;7.50;;
74241;SDS011;62599;49.146;10.426;2023-04-16T08:13:03;10.93;;;5.88;;
74241;SDS011;62599;49.146;10.426;2023-04-16T08:15:28;8.38;;;4.25;;
74241;SDS011;62599;49.146;10.426;2023-04-16T08:17:54;8.52;;;4.45;;
74241;SDS011;62599;49.146;10.426;2023-04-16T08:20:20;10.80;;;5.18;;
74241;SDS011;62599;49.146;10.426;2023-04-16T08:22:45;8.70;;;4.90;;
74241;SDS011;62599;49.146;10.426;2023-04-16T08:25:11;8.47;;;4.60;;
74241;SDS011;62599;49.146;10.426;2023-04-16T08:27:36;8.38;;;4.10;;
74241;SDS011;62599;49.146;10.426;2023-04-16T08:30:02;10.35;;;5.68;;
74241;SDS011;62599;49.146;10.426;2023-04-16T08:32:27;15.32;;;5.72;;
74241;SDS011;62599;49.146;10.426;2023-04-16T08:34:53;11.27;;;4.10;;
74241;SDS011;62599;49.146;10.426;2023-04-16T08:37:18;4.88;;;2.53;;
74241;SDS011;62599;49.146;10.426;2023-04-16T08:39:44;13.88;;;6.40;;
74241;SDS011;62599;49.146;10.426;2023-04-16T08:42:28;6.03;;;3.03;;
74241;SDS011;62599;49.146;10.426;2023-04-16T08:45:05;12.98;;;6.75;;
74241;SDS011;62599;49.146;10.426;2023-04-16T08:47:35;7.28;;;3.15;;
74241;SDS011;62599;49.146;10.426;2023-04-16T08:50:04;17.67;;;7.38;;
74241;SDS011;62599;49.146;10.426;2023-04-16T08:52:30;9.25;;;4.78;;
74241;SDS011;62599;49.146;10.426;2023-04-16T08:55:12;8.20;;;4.68;;
74241;SDS011;62599;49.146;10.426;2023-04-16T08:57:46;23.88;;;13.43;;
74241;SDS011;62599;49.146;10.426;2023-04-16T09:00:15;10.15;;;5.38;;
74241;SDS011;62599;49.146;10.426;2023-04-16T09:02:40;6.40;;;3.50;;
74241;SDS011;62599;49.146;10.426;2023-04-16T09:05:06;9.55;;;5.45;;
74241;SDS011;62599;49.146;10.426;2023-04-16T09:07:33;13.45;;;5.80;;
74241;SDS011;62599;49.146;10.426;2023-04-16T09:10:00;16.10;;;7.15;;
74241;SDS011;62599;49.146;10.426;2023-04-16T09:12:26;8.82;;;5.15;;
74241;SDS011;62599;49.146;10.426;2023-04-16T09:14:51;8.75;;;3.63;;
74241;SDS011;62599;49.146;10.426;2023-04-16T09:17:17;17.58;;;7.13;;
74241;SDS011;62599;49.146;10.426;2023-04-16T09:19:46;4.45;;;2.38;;
74241;SDS011;62599;49.146;10.426;2023-04-16T09:22:12;11.23;;;5.97;;
74241;SDS011;62599;49.146;10.426;2023-04-16T09:24:37;7.70;;;4.18;;
74241;SDS011;62599;49.146;10.426;2023-04-16T09:27:12;5.25;;;3.33;;
74241;SDS011;62599;49.146;10.426;2023-04-16T09:29:38;6.32;;;3.92;;
74241;SDS011;62599;49.146;10.426;2023-04-16T09:32:06;9.80;;;4.18;;
74241;SDS011;62599;49.146;10.426;2023-04-16T09:37:21;8.85;;;5.07;;
74241;SDS011;62599;49.146;10.426;2023-04-16T09:39:59;8.18;;;4.60;;
74241;SDS011;62599;49.146;10.426;2023-04-16T09:44:59;6.25;;;3.90;;
74241;SDS011;62599;49.146;10.426;2023-04-16T09:47:37;7.93;;;4.43;;
74241;SDS011;62599;49.146;10.426;2023-04-16T09:50:08;8.20;;;5.28;;
74241;SDS011;62599;49.146;10.426;2023-04-16T09:52:38;7.82;;;3.35;;
74241;SDS011;62599;49.146;10.426;2023-04-16T09:55:03;9.25;;;5.38;;
74241;SDS011;62599;49.146;10.426;2023-04-16T09:57:29;13.50;;;6.13;;
74241;SDS011;62599;49.146;10.426;2023-04-16T09:59:59;6.28;;;3.33;;
74241;SDS011;62599;49.146;10.426;2023-04-16T10:02:30;7.05;;;4.47;;
74241;SDS011;62599;49.146;10.426;2023-04-16T10:05:00;5.82;;;3.83;;
74241;SDS011;62599;49.146;10.426;2023-04-16T10:07:33;7.55;;;3.55;;
74241;SDS011;62599;49.146;10.426;2023-04-16T10:10:02;5.90;;;3.10;;
74241;SDS011;62599;49.146;10.426;2023-04-16T10:12:28;7.65;;;4.55;;
74241;SDS011;62599;49.146;10.426;2023-04-16T10:14:56;5.82;;;3.65;;
74241;SDS011;62599;49.146;10.426;2023-04-16T10:17:25;6.40;;;4.15;;
74241;SDS011;62599;49.146;10.426;2023-04-16T10:19:53;9.00;;;5.10;;
74241;SDS011;62599;49.146;10.426;2023-04-16T10:22:23;110.35;;;35.67;;
74241;SDS011;62599;49.146;10.426;2023-04-16T10:24:51;92.57;;;36.58;;
74241;SDS011;62599;49.146;10.426;2023-04-16T10:27:18;106.55;;;39.83;;
74241;SDS011;62599;49.146;10.426;2023-04-16T10:29:45;109.50;;;48.85;;
74241;SDS011;62599;49.146;10.426;2023-04-16T10:32:14;21.85;;;12.63;;
74241;SDS011;62599;49.146;10.426;2023-04-16T10:34:41;13.18;;;6.80;;
74241;SDS011;62599;49.146;10.426;2023-04-16T10:37:07;15.90;;;9.60;;
74241;SDS011;62599;49.146;10.426;2023-04-16T10:39:34;15.90;;;9.60;;
74241;SDS011;62599;49.146;10.426;2023-04-16T10:42:08;8.07;;;4.55;;
74241;SDS011;62599;49.146;10.426;2023-04-16T10:44:37;4.47;;;2.85;;
74241;SDS011;62599;49.146;10.426;2023-04-16T10:47:08;6.20;;;3.65;;
74241;SDS011;62599;49.146;10.426;2023-04-16T10:49:36;4.82;;;3.50;;
74241;SDS011;62599;49.146;10.426;2023-04-16T10:52:11;6.15;;;3.85;;
74241;SDS011;62599;49.146;10.426;2023-04-16T10:54:43;9.77;;;4.53;;
74241;SDS011;62599;49.146;10.426;2023-04-16T10:57:17;6.28;;;3.47;;
74241;SDS011;62599;49.146;10.426;2023-04-16T10:59:43;8.75;;;5.47;;
74241;SDS011;62599;49.146;10.426;2023-04-16T11:02:13;7.40;;;5.20;;
74241;SDS011;62599;49.146;10.426;2023-04-16T11:04:43;9.55;;;5.43;;
74241;SDS011;62599;49.146;10.426;2023-04-16T11:12:39;8.98;;;5.03;;
74241;SDS011;62599;49.146;10.426;2023-04-16T11:20:17;6.30;;;4.28;;
74241;SDS011;62599;49.146;10.426;2023-04-16T11:22:44;4.88;;;3.80;;
74241;SDS011;62599;49.146;10.426;2023-04-16T11:25:09;9.63;;;5.65;;
74241;SDS011;62599;49.146;10.426;2023-04-16T11:27:35;6.60;;;3.90;;
74241;SDS011;62599;49.146;10.426;2023-04-16T11:30:04;11.38;;;5.65;;
74241;SDS011;62599;49.146;10.426;2023-04-16T11:32:34;5.70;;;3.40;;
74241;SDS011;62599;49.146;10.426;2023-04-16T11:35:01;6.15;;;4.38;;
74241;SDS011;62599;49.146;10.426;2023-04-16T11:37:38;4.25;;;2.78;;
74241;SDS011;62599;49.146;10.426;2023-04-16T11:40:04;9.63;;;4.50;;
74241;SDS011;62599;49.146;10.426;2023-04-16T11:42:34;9.38;;;4.72;;
74241;SDS011;62599;49.146;10.426;2023-04-16T11:45:07;5.45;;;3.17;;
74241;SDS011;62599;49.146;10.426;2023-04-16T11:47:41;12.00;;;7.53;;
74241;SDS011;62599;49.146;10.426;2023-04-16T11:50:22;11.55;;;6.45;;
74241;SDS011;62599;49.146;10.426;2023-04-16T11:53:02;11.63;;;6.22;;
74241;SDS011;62599;49.146;10.426;2023-04-16T11:55:28;6.53;;;4.22;;
74241;SDS011;62599;49.146;10.426;2023-04-16T11:58:12;5.90;;;4.28;;
74241;SDS011;62599;49.146;10.426;2023-04-16T12:00:40;9.18;;;6.18;;
74241;SDS011;62599;49.146;10.426;2023-04-16T12:03:06;4.20;;;2.78;;
74241;SDS011;62599;49.146;10.426;2023-04-16T12:05:36;8.32;;;5.82;;
74241;SDS011;62599;49.146;10.426;2023-04-16T12:08:07;7.85;;;4.15;;
74241;SDS011;62599;49.146;10.426;2023-04-16T12:10:34;6.78;;;4.25;;
74241;SDS011;62599;49.146;10.426;2023-04-16T12:15:46;6.32;;;3.00;;
74241;SDS011;62599;49.146;10.426;2023-04-16T12:18:13;5.95;;;3.25;;
74241;SDS011;62599;49.146;10.426;2023-04-16T12:20:40;6.00;;;3.42;;
74241;SDS011;62599;49.146;10.426;2023-04-16T12:23:09;10.27;;;4.68;;
74241;SDS011;62599;49.146;10.426;2023-04-16T12:25:45;4.53;;;3.08;;
74241;SDS011;62599;49.146;10.426;2023-04-16T12:28:13;3.95;;;2.67;;
74241;SDS011;62599;49.146;10.426;2023-04-16T12:30:48;3.70;;;2.50;;
74241;SDS011;62599;49.146;10.426;2023-04-16T12:33:16;2.90;;;2.58;;
74241;SDS011;62599;49.146;10.426;2023-04-16T12:35:43;6.68;;;3.40;;
74241;SDS011;62599;49.146;10.426;2023-04-16T12:38:09;4.10;;;2.65;;
74241;SDS011;62599;49.146;10.426;2023-04-16T12:40:58;6.43;;;4.00;;
74241;SDS011;62599;49.146;10.426;2023-04-16T12:43:26;6.72;;;2.75;;
74241;SDS011;62599;49.146;10.426;2023-04-16T12:45:54;11.00;;;4.53;;
74241;SDS011;62599;49.146;10.426;2023-04-16T12:48:22;7.25;;;3.25;;
74241;SDS011;62599;49.146;10.426;2023-04-16T12:50:52;5.70;;;2.53;;
74241;SDS011;62599;49.146;10.426;2023-04-16T12:53:18;3.45;;;2.90;;
74241;SDS011;62599;49.146;10.426;2023-04-16T12:55:44;7.90;;;5.20;;
74241;SDS011;62599;49.146;10.426;2023-04-16T12:58:12;8.40;;;4.70;;
74241;SDS011;62599;49.146;10.426;2023-04-16T13:00:41;4.82;;;3.67;;
74241;SDS011;62599;49.146;10.426;2023-04-16T13:03:06;3.25;;;2.20;;
74241;SDS011;62599;49.146;10.426;2023-04-16T13:05:34;5.38;;;2.17;;
74241;SDS011;62599;49.146;10.426;2023-04-16T13:08:00;3.25;;;2.53;;
74241;SDS011;62599;49.146;10.426;2023-04-16T13:10:26;4.78;;;3.00;;
74241;SDS011;62599;49.146;10.426;2023-04-16T13:12:51;2.65;;;1.88;;
74241;SDS011;62599;49.146;10.426;2023-04-16T13:15:17;5.05;;;2.65;;
74241;SDS011;62599;49.146;10.426;2023-04-16T13:17:45;2.28;;;1.80;;
74241;SDS011;62599;49.146;10.426;2023-04-16T13:20:11;3.60;;;1.57;;
74241;SDS011;62599;49.146;10.426;2023-04-16T13:22:38;2.05;;;1.52;;
74241;SDS011;62599;49.146;10.426;2023-04-16T13:25:03;2.63;;;2.13;;
74241;SDS011;62599;49.146;10.426;2023-04-16T13:27:29;2.47;;;2.00;;
74241;SDS011;62599;49.146;10.426;2023-04-16T13:29:56;1.42;;;1.15;;
74241;SDS011;62599;49.146;10.426;2023-04-16T13:32:21;4.05;;;2.60;;
74241;SDS011;62599;49.146;10.426;2023-04-16T13:34:47;2.65;;;2.13;;
74241;SDS011;62599;49.146;10.426;2023-04-16T13:37:12;5.83;;;3.33;;
74241;SDS011;62599;49.146;10.426;2023-04-16T13:39:38;2.15;;;1.30;;
74241;SDS011;62599;49.146;10.426;2023-04-16T13:42:06;5.30;;;1.73;;
74241;SDS011;62599;49.146;10.426;2023-04-16T13:44:32;3.80;;;2.05;;
74241;SDS011;62599;49.146;10.426;2023-04-16T13:46:57;5.30;;;3.47;;
74241;SDS011;62599;49.146;10.426;2023-04-16T13:49:23;3.53;;;2.75;;
74241;SDS011;62599;49.146;10.426;2023-04-16T13:51:51;2.38;;;1.92;;
74241;SDS011;62599;49.146;10.426;2023-04-16T13:54:16;1.80;;;1.70;;
74241;SDS011;62599;49.146;10.426;2023-04-16T13:56:42;3.95;;;1.55;;
74241;SDS011;62599;49.146;10.426;2023-04-16T13:59:07;2.78;;;1.63;;
74241;SDS011;62599;49.146;10.426;2023-04-16T14:01:33;2.27;;;2.07;;
74241;SDS011;62599;49.146;10.426;2023-04-16T14:03:59;3.85;;;1.92;;
74241;SDS011;62599;49.146;10.426;2023-04-16T14:06:29;1.55;;;1.45;;
74241;SDS011;62599;49.146;10.426;2023-04-16T14:08:56;2.67;;;1.88;;
74241;SDS011;62599;49.146;10.426;2023-04-16T14:11:21;2.35;;;1.65;;
74241;SDS011;62599;49.146;10.426;2023-04-16T14:13:48;1.70;;;1.42;;
74241;SDS011;62599;49.146;10.426;2023-04-16T14:16:13;1.70;;;1.30;;
74241;SDS011;62599;49.146;10.426;2023-04-16T14:18:39;2.65;;;1.73;;
74241;SDS011;62599;49.146;10.426;2023-04-16T14:21:06;4.55;;;2.72;;
74241;SDS011;62599;49.146;10.426;2023-04-16T14:23:32;1.98;;;1.73;;
74241;SDS011;62599;49.146;10.426;2023-04-16T14:25:57;3.53;;;2.50;;
74241;SDS011;62599;49.146;10.426;2023-04-16T14:28:22;1.20;;;1.10;;
74241;SDS011;62599;49.146;10.426;2023-04-16T14:30:48;9.43;;;4.70;;
74241;SDS011;62599;49.146;10.426;2023-04-16T14:33:13;4.28;;;2.83;;
74241;SDS011;62599;49.146;10.426;2023-04-16T14:35:40;5.07;;;3.67;;
74241;SDS011;62599;49.146;10.426;2023-04-16T14:38:05;3.10;;;2.45;;
74241;SDS011;62599;49.146;10.426;2023-04-16T14:40:30;7.40;;;5.00;;
74241;SDS011;62599;49.146;10.426;2023-04-16T14:42:56;4.63;;;3.35;;
74241;SDS011;62599;49.146;10.426;2023-04-16T14:45:21;3.73;;;2.60;;
74241;SDS011;62599;49.146;10.426;2023-04-16T14:47:52;3.55;;;2.78;;